createdAt,value
2023-04-12T00:01:43.956Z,0.90
2023-04-12T00:04:14.607Z,0.90
2023-04-12T00:06:42.931Z,0.90
2023-04-12T00:09:10.960Z,1.20
2023-04-12T00:11:38.841Z,1.00
2023-04-12T00:14:06.757Z,1.10
2023-04-12T00:16:36.166Z,1.00
2023-04-12T00:19:06.672Z,1.00
2023-04-12T00:21:34.712Z,1.00
2023-04-12T00:24:02.808Z,1.00
2023-04-12T00:26:30.758Z,1.00
2023-04-12T00:28:58.768Z,1.00
2023-04-12T00:31:26.819Z,2.70
2023-04-12T00:33:55.112Z,2.30
2023-04-12T00:36:27.169Z,1.00
2023-04-12T00:38:55.104Z,1.30
2023-04-12T00:41:24.187Z,1.10
2023-04-12T00:43:52.220Z,1.10
2023-04-12T00:46:20.827Z,1.10
2023-04-12T00:48:49.039Z,1.10
2023-04-12T00:51:18.265Z,1.10
2023-04-12T00:53:47.833Z,2.40
2023-04-12T00:56:16.034Z,1.10
2023-04-12T00:58:44.024Z,1.90
2023-04-12T01:01:12.032Z,1.10
2023-04-12T01:03:43.094Z,1.10
2023-04-12T01:06:14.886Z,1.20
2023-04-12T01:08:55.247Z,2.20
2023-04-12T01:11:32.809Z,1.20
2023-04-12T01:14:06.619Z,1.20
2023-04-12T01:16:41.006Z,1.20
2023-04-12T01:19:28.615Z,1.20
2023-04-12T01:22:14.597Z,1.20
2023-04-12T01:24:53.945Z,1.20
2023-04-12T01:27:34.275Z,1.20
2023-04-12T01:30:04.146Z,1.30
2023-04-12T01:32:35.073Z,2.40
2023-04-12T01:35:05.389Z,1.30
2023-04-12T01:37:33.786Z,1.40
2023-04-12T01:40:05.735Z,1.40
2023-04-12T01:42:35.152Z,1.90
2023-04-12T01:45:04.406Z,1.40
2023-04-12T01:47:33.687Z,1.50
2023-04-12T01:50:12.967Z,2.70
2023-04-12T01:52:46.968Z,1.50
2023-04-12T01:55:17.916Z,1.50
2023-04-12T01:57:50.186Z,1.50
2023-04-12T02:00:20.839Z,1.50
2023-04-12T02:02:49.170Z,1.50
2023-04-12T02:05:17.778Z,1.60
2023-04-12T02:07:46.958Z,1.60
2023-04-12T02:10:15.763Z,1.60
2023-04-12T02:12:43.779Z,1.60
2023-04-12T02:15:13.447Z,1.60
2023-04-12T02:17:41.427Z,1.60
2023-04-12T02:20:11.865Z,1.60
2023-04-12T02:22:39.993Z,1.60
2023-04-12T02:25:08.568Z,1.70
2023-04-12T02:27:36.567Z,1.60
2023-04-12T02:30:05.252Z,1.70
2023-04-12T02:32:44.572Z,1.70
2023-04-12T02:35:13.465Z,1.70
2023-04-12T02:37:43.883Z,1.70
2023-04-12T02:40:13.286Z,1.80
2023-04-12T02:42:41.484Z,1.80
2023-04-12T02:45:10.001Z,1.80
2023-04-12T02:47:40.957Z,1.80
2023-04-12T02:50:10.581Z,1.90
2023-04-12T02:52:38.541Z,2.00
2023-04-12T02:55:07.571Z,1.80
2023-04-12T02:57:35.562Z,1.80
2023-04-12T03:00:07.496Z,1.80
2023-04-12T03:02:35.678Z,1.80
2023-04-12T03:05:07.645Z,1.80
2023-04-12T03:07:36.062Z,1.90
2023-04-12T03:10:06.480Z,1.90
2023-04-12T03:12:34.868Z,1.90
2023-04-12T03:15:02.880Z,2.00
2023-04-12T03:17:31.109Z,2.00
2023-04-12T03:20:07.990Z,2.10
2023-04-12T03:22:36.431Z,2.10
2023-04-12T03:25:05.110Z,2.10
2023-04-12T03:27:33.157Z,2.10
2023-04-12T03:30:01.516Z,2.20
2023-04-12T03:32:29.562Z,2.20
2023-04-12T03:34:58.083Z,2.20
2023-04-12T03:37:27.560Z,2.20
2023-04-12T03:39:55.599Z,2.20
2023-04-12T03:42:33.030Z,2.20
2023-04-12T03:45:01.811Z,2.20
2023-04-12T03:47:29.987Z,2.20
2023-04-12T03:52:35.278Z,2.20
2023-04-12T03:55:03.601Z,2.70
2023-04-12T03:57:31.566Z,2.30
2023-04-12T03:59:59.560Z,2.30
2023-04-12T04:02:28.387Z,2.30
2023-04-12T04:04:56.673Z,2.40
2023-04-12T04:07:24.856Z,2.40
2023-04-12T04:09:55.415Z,2.40
2023-04-12T04:12:23.464Z,2.40
2023-04-12T04:14:52.651Z,2.40
2023-04-12T04:17:21.688Z,2.40
2023-04-12T04:20:05.490Z,2.40
2023-04-12T04:22:33.570Z,2.40
2023-04-12T04:25:03.077Z,2.50
2023-04-12T04:27:34.227Z,2.50
2023-04-12T04:30:02.662Z,2.50
2023-04-12T04:32:31.603Z,2.60
2023-04-12T04:35:00.579Z,2.60
2023-04-12T04:37:30.477Z,2.60
2023-04-12T04:39:58.944Z,2.60
2023-04-12T04:42:29.664Z,2.70
2023-04-12T04:45:03.588Z,2.70
2023-04-12T04:47:31.937Z,2.80
2023-04-12T04:50:01.122Z,2.80
2023-04-12T04:52:29.235Z,2.80
2023-04-12T04:54:57.891Z,2.90
2023-04-12T04:57:27.779Z,2.90
2023-04-12T04:59:55.920Z,3.50
2023-04-12T05:02:24.117Z,3.00
2023-04-12T05:04:52.299Z,3.00
2023-04-12T05:07:20.305Z,3.00
2023-04-12T05:09:48.386Z,3.00
2023-04-12T05:12:16.486Z,3.10
2023-04-12T05:14:49.788Z,3.10
2023-04-12T05:17:19.716Z,3.20
2023-04-12T05:19:47.788Z,3.20
2023-04-12T05:22:20.286Z,3.20
2023-04-12T05:24:48.423Z,3.40
2023-04-12T05:27:17.136Z,3.50
2023-04-12T05:29:47.161Z,3.50
2023-04-12T05:32:15.234Z,3.60
2023-04-12T05:34:44.209Z,3.60
2023-04-12T05:37:12.377Z,3.70
2023-04-12T05:39:40.395Z,4.10
2023-04-12T05:42:08.413Z,3.80
2023-04-12T05:44:37.082Z,3.90
2023-04-12T05:47:06.815Z,4.80
2023-04-12T05:49:34.908Z,4.20
2023-04-12T05:52:04.607Z,4.20
2023-04-12T05:54:32.645Z,4.70
2023-04-12T05:57:00.754Z,4.40
2023-04-12T05:59:28.812Z,4.50
2023-04-12T06:01:57.046Z,4.60
2023-04-12T06:04:42.050Z,4.60
2023-04-12T06:07:17.706Z,4.70
2023-04-12T06:09:46.141Z,4.70
2023-04-12T06:12:14.258Z,4.90
2023-04-12T06:14:42.457Z,4.90
2023-04-12T06:17:10.481Z,6.30
2023-04-12T06:19:39.976Z,5.10
2023-04-12T06:22:08.114Z,5.00
2023-04-12T06:24:36.233Z,5.20
2023-04-12T06:27:04.461Z,6.10
2023-04-12T06:29:32.526Z,5.40
2023-04-12T06:32:00.601Z,5.40
2023-04-12T06:34:28.677Z,5.60
2023-04-12T06:36:58.447Z,5.60
2023-04-12T06:39:26.488Z,6.00
2023-04-12T06:41:55.416Z,5.70
2023-04-12T06:44:23.439Z,6.20
2023-04-12T06:46:51.590Z,6.40
2023-04-12T06:49:19.670Z,5.80
2023-04-12T06:51:47.771Z,5.90
2023-04-12T06:54:17.441Z,6.00
2023-04-12T06:56:45.587Z,6.00
2023-04-12T06:59:13.586Z,6.00
2023-04-12T07:01:43.383Z,6.00
2023-04-12T07:04:12.366Z,6.10
2023-04-12T07:06:40.531Z,6.60
2023-04-12T07:09:08.554Z,6.70
2023-04-12T07:11:38.017Z,6.10
2023-04-12T07:14:06.221Z,6.10
2023-04-12T07:16:34.348Z,6.40
2023-04-12T07:19:02.433Z,6.20
2023-04-12T07:21:30.429Z,6.40
2023-04-12T07:23:58.456Z,6.30
2023-04-12T07:26:27.080Z,6.50
2023-04-12T07:28:57.011Z,6.50
2023-04-12T07:31:25.240Z,6.60
2023-04-12T07:33:53.338Z,6.40
2023-04-12T07:36:22.054Z,7.60
2023-04-12T07:38:55.381Z,6.50
2023-04-12T07:41:23.930Z,6.70
2023-04-12T07:43:51.947Z,6.60
2023-04-12T07:46:21.372Z,6.60
2023-04-12T07:48:49.423Z,6.60
2023-04-12T07:51:17.589Z,6.60
2023-04-12T07:53:48.345Z,7.00
2023-04-12T07:56:16.740Z,7.10
2023-04-12T07:58:44.857Z,7.20
2023-04-12T08:01:13.602Z,7.00
2023-04-12T08:03:43.307Z,7.10
2023-04-12T08:06:11.910Z,7.10
2023-04-12T08:08:39.933Z,7.90
2023-04-12T08:11:08.076Z,7.00
2023-04-12T08:13:36.307Z,6.90
2023-04-12T08:16:04.866Z,6.90
2023-04-12T08:18:32.895Z,7.10
2023-04-12T08:21:02.635Z,7.00
2023-04-12T08:23:31.376Z,7.00
2023-04-12T08:26:03.509Z,7.10
2023-04-12T08:28:32.598Z,7.20
2023-04-12T08:31:01.004Z,7.40
2023-04-12T08:33:29.092Z,7.50
2023-04-12T08:35:57.113Z,7.30
2023-04-12T08:38:41.252Z,8.80
2023-04-12T08:41:10.063Z,7.60
2023-04-12T08:43:42.271Z,7.90
2023-04-12T08:46:10.754Z,7.80
2023-04-12T08:48:39.515Z,7.70
2023-04-12T08:51:08.145Z,7.60
2023-04-12T08:53:37.502Z,7.80
2023-04-12T08:56:07.860Z,7.80
2023-04-12T08:58:37.181Z,7.80
2023-04-12T09:01:05.589Z,7.70
2023-04-12T09:03:34.732Z,7.80
2023-04-12T09:06:04.405Z,7.80
2023-04-12T09:08:32.442Z,7.80
2023-04-12T09:11:01.865Z,7.90
2023-04-12T09:13:34.534Z,7.80
2023-04-12T09:16:03.093Z,8.00
2023-04-12T09:18:31.248Z,8.00
2023-04-12T09:21:11.738Z,7.90
2023-04-12T09:23:39.817Z,7.80
2023-04-12T09:26:09.469Z,8.10
2023-04-12T09:28:37.464Z,8.10
2023-04-12T09:31:06.145Z,8.10
2023-04-12T09:33:35.972Z,8.30
2023-04-12T09:36:04.948Z,8.80
2023-04-12T09:38:33.711Z,8.00
2023-04-12T09:41:22.206Z,8.20
2023-04-12T09:43:51.710Z,8.20
2023-04-12T09:46:19.764Z,8.30
2023-04-12T09:48:51.459Z,8.30
2023-04-12T09:51:28.496Z,8.30
2023-04-12T09:54:00.434Z,8.00
2023-04-12T09:56:32.570Z,8.60
2023-04-12T09:59:03.567Z,8.60
2023-04-12T10:01:34.469Z,8.80
2023-04-12T10:04:03.561Z,8.70
2023-04-12T10:06:33.783Z,8.80
2023-04-12T10:09:04.408Z,8.90
2023-04-12T10:11:34.947Z,8.90
2023-04-12T10:14:03.789Z,8.50
2023-04-12T10:16:34.659Z,8.30
2023-04-12T10:19:04.437Z,8.20
2023-04-12T10:21:32.567Z,8.30
2023-04-12T10:24:01.641Z,8.40
2023-04-12T10:26:29.717Z,8.50
2023-04-12T10:29:31.178Z,8.40
2023-04-12T10:32:00.501Z,8.60
2023-04-12T10:34:29.853Z,8.70
2023-04-12T10:36:59.294Z,8.60
2023-04-12T10:39:39.480Z,8.60
2023-04-12T10:42:17.918Z,8.80
2023-04-12T10:44:47.551Z,8.90
2023-04-12T10:47:16.251Z,9.00
2023-04-12T10:50:17.675Z,9.40
2023-04-12T10:52:45.824Z,9.00
2023-04-12T10:55:30.248Z,9.30
2023-04-12T10:57:58.275Z,9.10
2023-04-12T11:01:04.453Z,10.10
2023-04-12T11:03:34.086Z,9.00
2023-04-12T11:06:13.091Z,9.00
2023-04-12T11:08:48.624Z,9.20
2023-04-12T11:11:22.680Z,9.60
2023-04-12T11:13:57.211Z,9.50
2023-04-12T11:16:25.440Z,9.20
2023-04-12T11:18:55.609Z,9.90
2023-04-12T11:21:23.904Z,10.10
2023-04-12T11:23:53.665Z,9.80
2023-04-12T11:26:22.504Z,9.20
2023-04-12T11:28:53.208Z,9.30
2023-04-12T11:31:23.194Z,9.10
2023-04-12T11:33:51.297Z,9.60
2023-04-12T11:36:20.733Z,9.40
2023-04-12T11:38:50.274Z,9.40
2023-04-12T11:41:18.752Z,9.30
2023-04-12T11:43:47.352Z,9.40
2023-04-12T11:46:16.390Z,9.60
2023-04-12T11:48:46.868Z,9.80
2023-04-12T11:51:25.040Z,9.80
2023-04-12T11:53:57.145Z,9.90
2023-04-12T11:56:25.462Z,10.50
2023-04-12T11:58:53.411Z,10.20
2023-04-12T12:01:23.853Z,10.30
2023-04-12T12:03:52.222Z,10.50
2023-04-12T12:06:23.483Z,11.80
2023-04-12T12:08:52.682Z,10.10
2023-04-12T12:11:21.531Z,11.00
2023-04-12T12:13:51.551Z,10.10
2023-04-12T12:16:25.351Z,10.40
2023-04-12T12:18:53.646Z,11.80
2023-04-12T12:21:23.073Z,10.80
2023-04-12T12:23:51.500Z,10.80
2023-04-12T12:26:23.427Z,10.90
2023-04-12T12:28:52.940Z,11.70
2023-04-12T12:31:22.477Z,10.90
2023-04-12T12:33:52.585Z,11.10
2023-04-12T12:36:22.236Z,11.20
2023-04-12T12:38:54.585Z,11.10
2023-04-12T12:41:24.025Z,11.30
2023-04-12T12:43:53.554Z,12.00
2023-04-12T12:46:21.931Z,11.30
2023-04-12T12:48:50.228Z,11.40
2023-04-12T12:51:19.807Z,11.30
2023-04-12T12:53:49.251Z,11.10
2023-04-12T12:56:17.299Z,11.10
2023-04-12T12:58:45.568Z,10.90
2023-04-12T13:01:13.516Z,11.00
2023-04-12T13:03:41.630Z,11.60
2023-04-12T13:06:10.318Z,11.40
2023-04-12T13:08:38.277Z,11.20
2023-04-12T13:11:08.434Z,11.20
2023-04-12T13:13:36.537Z,11.50
2023-04-12T13:16:04.726Z,11.70
2023-04-12T13:18:32.690Z,11.50
2023-04-12T13:21:00.733Z,11.30
2023-04-12T13:23:28.816Z,11.30
2023-04-12T13:25:56.851Z,11.20
2023-04-12T13:28:26.390Z,11.50
2023-04-12T13:30:54.379Z,12.50
2023-04-12T13:33:22.560Z,12.60
2023-04-12T13:35:51.007Z,11.50
2023-04-12T13:38:19.105Z,11.50
2023-04-12T13:40:47.030Z,11.60
2023-04-12T13:43:15.424Z,11.60
2023-04-12T13:45:44.896Z,13.70
2023-04-12T13:48:12.995Z,12.50
2023-04-12T13:50:40.973Z,13.20
2023-04-12T13:53:09.224Z,13.20
2023-04-12T13:55:37.481Z,12.90
2023-04-12T13:58:05.452Z,13.80
2023-04-12T14:00:33.411Z,12.60
2023-04-12T14:03:03.336Z,13.60
2023-04-12T14:05:31.614Z,13.90
2023-04-12T14:07:59.606Z,13.40
2023-04-12T14:10:27.599Z,12.40
2023-04-12T14:12:55.594Z,12.00
2023-04-12T14:15:23.732Z,12.40
2023-04-12T14:17:52.169Z,11.70
2023-04-12T14:20:23.747Z,11.60
2023-04-12T14:22:51.848Z,12.40
2023-04-12T14:25:19.992Z,13.50
2023-04-12T14:27:47.985Z,11.70
2023-04-12T14:30:18.397Z,13.20
2023-04-12T14:32:47.799Z,11.60
2023-04-12T14:35:15.924Z,11.60
2023-04-12T14:37:46.169Z,11.70
2023-04-12T14:40:14.870Z,11.70
2023-04-12T14:42:43.198Z,11.60
2023-04-12T14:45:12.479Z,11.60
2023-04-12T14:47:41.442Z,11.80
2023-04-12T14:50:09.946Z,11.80
2023-04-12T14:52:38.058Z,11.80
2023-04-12T14:55:08.494Z,13.30
2023-04-12T14:57:36.628Z,11.70
2023-04-12T15:00:12.834Z,11.60
2023-04-12T15:02:40.996Z,11.70
2023-04-12T15:05:09.952Z,12.00
2023-04-12T15:07:38.557Z,11.80
2023-04-12T15:10:09.384Z,11.80
2023-04-12T15:12:37.644Z,11.80
2023-04-12T15:15:06.694Z,11.90
2023-04-12T15:17:35.181Z,12.00
2023-04-12T15:20:09.184Z,12.00
2023-04-12T15:22:37.279Z,12.90
2023-04-12T15:25:07.761Z,12.00
2023-04-12T15:27:35.965Z,12.10
2023-04-12T15:30:05.046Z,12.20
2023-04-12T15:32:36.547Z,12.30
2023-04-12T15:35:15.029Z,12.40
2023-04-12T15:37:51.958Z,12.30
2023-04-12T15:40:22.872Z,12.40
2023-04-12T15:42:51.044Z,12.40
2023-04-12T15:45:19.011Z,13.80
2023-04-12T15:47:47.073Z,12.40
2023-04-12T15:50:15.106Z,12.30
2023-04-12T15:52:44.222Z,12.30
2023-04-12T15:55:12.826Z,12.20
2023-04-12T15:57:42.361Z,13.40
2023-04-12T16:00:20.785Z,12.20
2023-04-12T16:02:53.528Z,12.20
2023-04-12T16:05:22.242Z,12.20
2023-04-12T16:07:51.132Z,14.10
2023-04-12T16:10:21.070Z,12.30
2023-04-12T16:12:51.877Z,12.40
2023-04-12T16:15:21.091Z,13.40
2023-04-12T16:17:52.046Z,12.50
2023-04-12T16:20:21.651Z,12.50
2023-04-12T16:22:50.204Z,14.10
2023-04-12T16:25:18.871Z,12.60
2023-04-12T16:27:47.436Z,12.60
2023-04-12T16:30:17.559Z,11.70
2023-04-12T16:32:47.587Z,12.60
2023-04-12T16:35:16.491Z,12.60
2023-04-12T16:37:45.050Z,13.80
2023-04-12T16:40:13.770Z,12.60
2023-04-12T16:42:42.611Z,12.70
2023-04-12T16:45:14.240Z,12.70
2023-04-12T16:47:46.694Z,12.80
2023-04-12T16:50:15.579Z,12.60
2023-04-12T16:52:43.723Z,12.70
2023-04-12T16:55:12.378Z,13.60
2023-04-12T16:57:41.156Z,12.70
2023-04-12T17:00:19.519Z,12.80
2023-04-12T17:02:50.522Z,12.60
2023-04-12T17:05:19.837Z,12.50
2023-04-12T17:07:49.777Z,12.50
2023-04-12T17:10:18.670Z,12.50
2023-04-12T17:12:47.220Z,12.50
2023-04-12T17:15:17.367Z,12.40
2023-04-12T17:17:47.540Z,12.40
2023-04-12T17:20:18.425Z,13.90
2023-04-12T17:22:46.711Z,12.30
2023-04-12T17:25:14.857Z,12.20
2023-04-12T17:27:42.971Z,12.20
2023-04-12T17:30:13.297Z,12.00
2023-04-12T17:32:41.520Z,11.90
2023-04-12T17:35:10.252Z,13.00
2023-04-12T17:37:39.627Z,11.70
2023-04-12T17:40:10.586Z,12.20
2023-04-12T17:42:39.172Z,11.70
2023-04-12T17:45:12.595Z,11.70
2023-04-12T17:47:41.054Z,11.60
2023-04-12T17:50:10.530Z,11.50
2023-04-12T17:52:40.507Z,11.40
2023-04-12T17:55:10.061Z,11.30
2023-04-12T17:57:38.173Z,11.20
2023-04-12T18:00:09.217Z,11.20
2023-04-12T18:02:37.429Z,11.00
2023-04-12T18:05:05.692Z,11.40
2023-04-12T18:07:33.651Z,10.90
2023-04-12T18:10:03.318Z,10.90
2023-04-12T18:12:31.536Z,11.00
2023-04-12T18:14:59.556Z,11.00
2023-04-12T18:17:27.702Z,10.50
2023-04-12T18:19:55.900Z,10.30
2023-04-12T18:22:23.878Z,10.20
2023-04-12T18:24:51.972Z,10.20
2023-04-12T18:27:21.330Z,10.20
2023-04-12T18:29:49.309Z,10.60
2023-04-12T18:32:17.376Z,10.90
2023-04-12T18:34:45.333Z,11.10
2023-04-12T18:37:13.411Z,11.20
2023-04-12T18:39:42.796Z,11.30
2023-04-12T18:42:10.842Z,11.30
2023-04-12T18:44:41.461Z,11.20
2023-04-12T18:47:09.829Z,11.10
2023-04-12T18:49:38.463Z,11.00
2023-04-12T18:52:07.022Z,10.80
2023-04-12T18:54:35.169Z,10.70
2023-04-12T18:57:03.547Z,10.50
2023-04-12T18:59:32.068Z,10.70
2023-04-12T19:02:01.598Z,10.80
2023-04-12T19:04:29.704Z,10.90
2023-04-12T19:06:58.061Z,10.90
2023-04-12T19:09:26.096Z,10.90
2023-04-12T19:11:55.500Z,10.90
2023-04-12T19:14:23.833Z,10.90
2023-04-12T19:16:53.065Z,10.90
2023-04-12T19:19:22.520Z,10.80
2023-04-12T19:21:50.633Z,10.60
2023-04-12T19:24:18.737Z,10.60
2023-04-12T19:26:47.744Z,10.50
2023-04-12T19:29:16.078Z,10.50
2023-04-12T19:31:45.845Z,10.30
2023-04-12T19:34:17.690Z,10.20
2023-04-12T19:36:47.643Z,10.10
2023-04-12T19:39:18.120Z,10.00
2023-04-12T19:41:48.418Z,9.90
2023-04-12T19:44:16.472Z,10.00
2023-04-12T19:46:44.482Z,9.70
2023-04-12T19:49:13.437Z,9.70
2023-04-12T19:51:41.673Z,9.60
2023-04-12T19:54:11.139Z,9.50
2023-04-12T19:56:39.429Z,11.10
2023-04-12T19:59:10.547Z,9.50
2023-04-12T20:01:47.705Z,9.40
2023-04-12T20:04:16.678Z,9.40
2023-04-12T20:06:44.961Z,9.30
2023-04-12T20:09:14.772Z,9.30
2023-04-12T20:11:43.090Z,9.30
2023-04-12T20:14:11.136Z,9.20
2023-04-12T20:16:41.521Z,9.20
2023-04-12T20:19:10.109Z,9.20
2023-04-12T20:21:38.841Z,9.20
2023-04-12T20:24:08.749Z,9.20
2023-04-12T20:26:38.243Z,9.20
2023-04-12T20:29:06.824Z,9.20
2023-04-12T20:31:34.965Z,9.20
2023-04-12T20:34:04.105Z,9.20
2023-04-12T20:36:32.831Z,9.20
2023-04-12T20:39:01.653Z,9.20
2023-04-12T20:41:29.855Z,9.20
2023-04-12T20:43:59.472Z,9.20
2023-04-12T20:46:28.958Z,9.10
2023-04-12T20:48:58.457Z,9.80
2023-04-12T20:51:27.766Z,9.10
2023-04-12T20:53:58.505Z,9.00
2023-04-12T20:56:28.742Z,8.90
2023-04-12T20:58:57.104Z,9.00
2023-04-12T21:01:27.041Z,8.90
2023-04-12T21:03:55.858Z,8.80
2023-04-12T21:06:23.921Z,8.80
2023-04-12T21:08:53.804Z,8.70
2023-04-12T21:11:22.176Z,8.50
2023-04-12T21:13:51.069Z,8.50
2023-04-12T21:16:19.855Z,8.60
2023-04-12T21:18:49.728Z,8.40
2023-04-12T21:21:19.148Z,8.50
2023-04-12T21:23:47.856Z,8.30
2023-04-12T21:26:15.998Z,8.30
2023-04-12T21:28:44.046Z,8.30
2023-04-12T21:31:12.218Z,8.20
2023-04-12T21:33:40.635Z,8.40
2023-04-12T21:36:12.613Z,8.40
2023-04-12T21:38:40.868Z,8.20
2023-04-12T21:41:11.374Z,8.30
2023-04-12T21:43:40.025Z,8.30
2023-04-12T21:46:09.083Z,8.30
2023-04-12T21:48:37.712Z,8.30
2023-04-12T21:51:06.233Z,8.40
2023-04-12T21:53:35.720Z,8.40
2023-04-12T21:56:03.753Z,8.30
2023-04-12T21:58:33.161Z,8.30
2023-04-12T22:01:01.277Z,8.30
2023-04-12T22:03:29.684Z,9.60
2023-04-12T22:06:04.261Z,8.20
2023-04-12T22:08:34.168Z,10.10
2023-04-12T22:11:05.282Z,8.10
2023-04-12T22:13:34.699Z,8.00
2023-04-12T22:16:02.920Z,9.10
2023-04-12T22:18:31.867Z,10.10
2023-04-12T22:20:59.913Z,8.00
2023-04-12T22:23:27.931Z,7.90
2023-04-12T22:25:58.564Z,7.90
2023-04-12T22:28:28.035Z,7.90
2023-04-12T22:30:59.936Z,7.90
2023-04-12T22:33:28.162Z,8.10
2023-04-12T22:35:57.047Z,7.80
2023-04-12T22:38:25.348Z,8.70
2023-04-12T22:40:54.930Z,8.80
2023-04-12T22:43:24.844Z,8.90
2023-04-12T22:45:54.298Z,8.90
2023-04-12T22:48:24.938Z,9.40
2023-04-12T22:50:54.566Z,8.70
2023-04-12T22:53:22.642Z,9.60
2023-04-12T22:55:50.629Z,7.70
2023-04-12T22:58:18.643Z,7.60
2023-04-12T23:00:50.553Z,7.60
2023-04-12T23:03:20.690Z,7.60
2023-04-12T23:05:48.719Z,7.50
2023-04-12T23:08:17.749Z,7.50
2023-04-12T23:10:46.420Z,7.50
2023-04-12T23:13:14.446Z,7.50
2023-04-12T23:15:42.952Z,8.20
2023-04-12T23:18:11.516Z,7.90
2023-04-12T23:20:44.788Z,7.40
2023-04-12T23:23:13.541Z,7.40
2023-04-12T23:25:41.940Z,7.80
2023-04-12T23:28:12.975Z,7.40
2023-04-12T23:30:43.610Z,7.40
2023-04-12T23:33:12.228Z,7.30
2023-04-12T23:35:42.481Z,7.50
2023-04-12T23:38:15.383Z,7.80
2023-04-12T23:40:44.208Z,7.30
2023-04-12T23:43:12.203Z,7.30
2023-04-12T23:45:40.278Z,7.30
2023-04-12T23:48:08.389Z,7.70
2023-04-12T23:50:36.665Z,7.30
2023-04-12T23:53:06.798Z,7.30
2023-04-12T23:55:34.962Z,9.20
2023-04-12T23:58:02.934Z,7.30
